sensor_id;sensor_type;location;lat;lon;timestamp;temperature;humidity
20722;DHT22;10522;52.198;9.890;2024-02-26T00:01:42;1.30;99.90
20722;DHT22;10522;52.198;9.890;2024-02-26T00:04:09;1.20;99.90
20722;DHT22;10522;52.198;9.890;2024-02-26T00:06:35;1.30;99.90
20722;DHT22;10522;52.198;9.890;2024-02-26T00:09:00;1.30;99.90
20722;DHT22;10522;52.198;9.890;2024-02-26T00:11:28;1.40;99.90
20722;DHT22;10522;52.198;9.890;2024-02-26T00:13:53;1.50;99.90
20722;DHT22;10522;52.198;9.890;2024-02-26T00:16:19;1.40;99.90
20722;DHT22;10522;52.198;9.890;2024-02-26T00:18:44;1.40;99.90
20722;DHT22;10522;52.198;9.890;2024-02-26T00:21:10;1.40;99.90
20722;DHT22;10522;52.198;9.890;2024-02-26T00:23:35;1.30;99.90
20722;DHT22;10522;52.198;9.890;2024-02-26T00:26:01;1.20;99.90
20722;DHT22;10522;52.198;9.890;2024-02-26T00:28:27;1.20;99.90
20722;DHT22;10522;52.198;9.890;2024-02-26T00:30:54;1.10;99.90
20722;DHT22;10522;52.198;9.890;2024-02-26T00:33:21;1.00;99.90
20722;DHT22;10522;52.198;9.890;2024-02-26T00:35:47;1.00;99.90
20722;DHT22;10522;52.198;9.890;2024-02-26T00:38:13;1.10;99.90
20722;DHT22;10522;52.198;9.890;2024-02-26T00:40:39;1.10;99.90
20722;DHT22;10522;52.198;9.890;2024-02-26T00:43:06;1.20;99.90
20722;DHT22;10522;52.198;9.890;2024-02-26T00:45:32;1.30;99.90
20722;DHT22;10522;52.198;9.890;2024-02-26T00:47:58;1.30;99.90
20722;DHT22;10522;52.198;9.890;2024-02-26T00:50:23;1.40;99.90
20722;DHT22;10522;52.198;9.890;2024-02-26T00:52:49;1.50;99.90
20722;DHT22;10522;52.198;9.890;2024-02-26T00:55:14;1.50;99.90
20722;DHT22;10522;52.198;9.890;2024-02-26T00:57:40;1.50;99.90
20722;DHT22;10522;52.198;9.890;2024-02-26T01:00:06;1.50;99.90
20722;DHT22;10522;52.198;9.890;2024-02-26T01:02:34;1.50;99.90
20722;DHT22;10522;52.198;9.890;2024-02-26T01:05:00;1.50;99.90
20722;DHT22;10522;52.198;9.890;2024-02-26T01:07:25;1.50;99.90
20722;DHT22;10522;52.198;9.890;2024-02-26T01:09:51;1.60;99.90
20722;DHT22;10522;52.198;9.890;2024-02-26T01:12:16;1.50;99.90
20722;DHT22;10522;52.198;9.890;2024-02-26T01:14:42;1.60;99.90
20722;DHT22;10522;52.198;9.890;2024-02-26T01:17:07;1.70;99.90
20722;DHT22;10522;52.198;9.890;2024-02-26T01:19:33;1.70;99.90
20722;DHT22;10522;52.198;9.890;2024-02-26T01:21:59;1.70;99.90
20722;DHT22;10522;52.198;9.890;2024-02-26T01:24:24;1.70;99.90
20722;DHT22;10522;52.198;9.890;2024-02-26T01:26:50;1.70;99.90
20722;DHT22;10522;52.198;9.890;2024-02-26T01:29:15;1.70;99.90
20722;DHT22;10522;52.198;9.890;2024-02-26T01:31:41;1.70;99.90
20722;DHT22;10522;52.198;9.890;2024-02-26T01:34:06;1.70;99.90
20722;DHT22;10522;52.198;9.890;2024-02-26T01:36:32;1.60;99.90
20722;DHT22;10522;52.198;9.890;2024-02-26T01:38:57;1.70;99.90
20722;DHT22;10522;52.198;9.890;2024-02-26T01:41:23;1.70;99.90
20722;DHT22;10522;52.198;9.890;2024-02-26T01:43:49;1.70;99.90
20722;DHT22;10522;52.198;9.890;2024-02-26T01:46:14;1.70;99.90
20722;DHT22;10522;52.198;9.890;2024-02-26T01:48:42;1.70;99.90
20722;DHT22;10522;52.198;9.890;2024-02-26T01:51:08;1.70;99.90
20722;DHT22;10522;52.198;9.890;2024-02-26T01:53:34;1.70;99.90
20722;DHT22;10522;52.198;9.890;2024-02-26T01:56:00;1.60;99.90
20722;DHT22;10522;52.198;9.890;2024-02-26T01:58:26;1.60;99.90
20722;DHT22;10522;52.198;9.890;2024-02-26T02:00:51;1.60;99.90
20722;DHT22;10522;52.198;9.890;2024-02-26T02:03:17;1.50;99.90
20722;DHT22;10522;52.198;9.890;2024-02-26T02:05:43;1.50;99.90
20722;DHT22;10522;52.198;9.890;2024-02-26T02:08:11;1.60;99.90
20722;DHT22;10522;52.198;9.890;2024-02-26T02:10:38;1.60;99.90
20722;DHT22;10522;52.198;9.890;2024-02-26T02:13:04;1.60;99.90
20722;DHT22;10522;52.198;9.890;2024-02-26T02:15:29;1.60;99.90
20722;DHT22;10522;52.198;9.890;2024-02-26T02:17:55;1.70;99.90
20722;DHT22;10522;52.198;9.890;2024-02-26T02:20:34;1.60;99.90
20722;DHT22;10522;52.198;9.890;2024-02-26T02:22:59;1.60;99.90
20722;DHT22;10522;52.198;9.890;2024-02-26T02:25:25;1.60;99.90
20722;DHT22;10522;52.198;9.890;2024-02-26T02:27:53;1.60;99.90
20722;DHT22;10522;52.198;9.890;2024-02-26T02:30:20;1.60;99.90
20722;DHT22;10522;52.198;9.890;2024-02-26T02:32:46;1.60;99.90
20722;DHT22;10522;52.198;9.890;2024-02-26T02:35:12;1.60;99.90
20722;DHT22;10522;52.198;9.890;2024-02-26T02:37:38;1.50;99.90
20722;DHT22;10522;52.198;9.890;2024-02-26T02:40:04;1.60;99.90
20722;DHT22;10522;52.198;9.890;2024-02-26T02:42:30;1.50;99.90
20722;DHT22;10522;52.198;9.890;2024-02-26T02:44:56;1.50;99.90
20722;DHT22;10522;52.198;9.890;2024-02-26T02:47:21;1.50;99.90
20722;DHT22;10522;52.198;9.890;2024-02-26T02:49:47;1.50;99.90
20722;DHT22;10522;52.198;9.890;2024-02-26T02:52:13;1.40;99.90
20722;DHT22;10522;52.198;9.890;2024-02-26T02:54:38;1.40;99.90
20722;DHT22;10522;52.198;9.890;2024-02-26T02:57:07;1.40;99.90
20722;DHT22;10522;52.198;9.890;2024-02-26T02:59:32;1.40;99.90
20722;DHT22;10522;52.198;9.890;2024-02-26T03:01:58;1.40;99.90
20722;DHT22;10522;52.198;9.890;2024-02-26T03:04:23;1.50;99.90
20722;DHT22;10522;52.198;9.890;2024-02-26T03:06:49;1.50;99.90
20722;DHT22;10522;52.198;9.890;2024-02-26T03:09:14;1.50;99.90
20722;DHT22;10522;52.198;9.890;2024-02-26T03:11:40;1.50;99.90
20722;DHT22;10522;52.198;9.890;2024-02-26T03:14:06;1.50;99.90
20722;DHT22;10522;52.198;9.890;2024-02-26T03:16:32;1.50;99.90
20722;DHT22;10522;52.198;9.890;2024-02-26T03:18:57;1.60;99.90
20722;DHT22;10522;52.198;9.890;2024-02-26T03:21:24;1.60;99.90
20722;DHT22;10522;52.198;9.890;2024-02-26T03:23:50;1.60;99.90
20722;DHT22;10522;52.198;9.890;2024-02-26T03:26:16;1.60;99.90
20722;DHT22;10522;52.198;9.890;2024-02-26T03:28:41;1.60;99.90
20722;DHT22;10522;52.198;9.890;2024-02-26T03:31:07;1.60;99.90
20722;DHT22;10522;52.198;9.890;2024-02-26T03:33:32;1.60;99.90
20722;DHT22;10522;52.198;9.890;2024-02-26T03:35:58;1.60;99.90
20722;DHT22;10522;52.198;9.890;2024-02-26T03:38:23;1.60;99.90
20722;DHT22;10522;52.198;9.890;2024-02-26T03:40:49;1.60;99.90
20722;DHT22;10522;52.198;9.890;2024-02-26T03:43:15;1.60;99.90
20722;DHT22;10522;52.198;9.890;2024-02-26T03:45:40;1.60;99.90
20722;DHT22;10522;52.198;9.890;2024-02-26T03:48:06;1.60;99.90
20722;DHT22;10522;52.198;9.890;2024-02-26T03:50:32;1.60;99.90
20722;DHT22;10522;52.198;9.890;2024-02-26T03:52:58;1.60;99.90
20722;DHT22;10522;52.198;9.890;2024-02-26T03:55:23;1.60;99.90
20722;DHT22;10522;52.198;9.890;2024-02-26T03:57:53;1.60;99.90
20722;DHT22;10522;52.198;9.890;2024-02-26T04:00:19;1.60;99.90
20722;DHT22;10522;52.198;9.890;2024-02-26T04:02:47;1.60;99.90
20722;DHT22;10522;52.198;9.890;2024-02-26T04:05:13;1.60;99.90
20722;DHT22;10522;52.198;9.890;2024-02-26T04:07:39;1.70;99.90
20722;DHT22;10522;52.198;9.890;2024-02-26T04:10:09;1.70;99.90
20722;DHT22;10522;52.198;9.890;2024-02-26T04:12:35;1.70;99.90
20722;DHT22;10522;52.198;9.890;2024-02-26T04:15:00;1.70;99.90
20722;DHT22;10522;52.198;9.890;2024-02-26T04:17:26;1.80;99.90
20722;DHT22;10522;52.198;9.890;2024-02-26T04:19:51;1.70;99.90
20722;DHT22;10522;52.198;9.890;2024-02-26T04:22:17;1.80;99.90
20722;DHT22;10522;52.198;9.890;2024-02-26T04:24:43;1.80;99.90
20722;DHT22;10522;52.198;9.890;2024-02-26T04:27:08;1.90;99.90
20722;DHT22;10522;52.198;9.890;2024-02-26T04:29:34;1.90;99.90
20722;DHT22;10522;52.198;9.890;2024-02-26T04:31:59;1.90;99.90
20722;DHT22;10522;52.198;9.890;2024-02-26T04:34:25;1.90;99.90
20722;DHT22;10522;52.198;9.890;2024-02-26T04:36:50;2.00;99.90
20722;DHT22;10522;52.198;9.890;2024-02-26T04:39:16;2.00;99.90
20722;DHT22;10522;52.198;9.890;2024-02-26T04:41:42;2.00;99.90
20722;DHT22;10522;52.198;9.890;2024-02-26T04:44:07;2.00;99.90
20722;DHT22;10522;52.198;9.890;2024-02-26T04:46:33;2.00;99.90
20722;DHT22;10522;52.198;9.890;2024-02-26T04:48:58;2.00;99.90
20722;DHT22;10522;52.198;9.890;2024-02-26T04:51:24;2.10;99.90
20722;DHT22;10522;52.198;9.890;2024-02-26T04:53:49;2.10;99.90
20722;DHT22;10522;52.198;9.890;2024-02-26T04:56:15;2.10;99.90
20722;DHT22;10522;52.198;9.890;2024-02-26T04:58:41;2.20;99.90
20722;DHT22;10522;52.198;9.890;2024-02-26T05:01:06;2.30;99.90
20722;DHT22;10522;52.198;9.890;2024-02-26T05:03:32;2.40;99.90
20722;DHT22;10522;52.198;9.890;2024-02-26T05:05:57;2.40;99.90
20722;DHT22;10522;52.198;9.890;2024-02-26T05:08:23;2.40;99.90
20722;DHT22;10522;52.198;9.890;2024-02-26T05:10:49;2.40;99.90
20722;DHT22;10522;52.198;9.890;2024-02-26T05:13:15;2.40;99.90
20722;DHT22;10522;52.198;9.890;2024-02-26T05:15:43;2.40;99.90
20722;DHT22;10522;52.198;9.890;2024-02-26T05:18:09;2.40;99.90
20722;DHT22;10522;52.198;9.890;2024-02-26T05:20:34;2.40;99.90
20722;DHT22;10522;52.198;9.890;2024-02-26T05:23:01;2.40;99.90
20722;DHT22;10522;52.198;9.890;2024-02-26T05:25:27;2.40;99.90
20722;DHT22;10522;52.198;9.890;2024-02-26T05:27:52;2.40;99.90
20722;DHT22;10522;52.198;9.890;2024-02-26T05:30:18;2.40;99.90
20722;DHT22;10522;52.198;9.890;2024-02-26T05:32:44;2.40;99.90
20722;DHT22;10522;52.198;9.890;2024-02-26T05:35:09;2.50;99.90
20722;DHT22;10522;52.198;9.890;2024-02-26T05:37:35;2.40;99.90
20722;DHT22;10522;52.198;9.890;2024-02-26T05:40:00;2.50;99.90
20722;DHT22;10522;52.198;9.890;2024-02-26T05:42:26;2.50;99.90
20722;DHT22;10522;52.198;9.890;2024-02-26T05:44:51;2.60;99.90
20722;DHT22;10522;52.198;9.890;2024-02-26T05:47:17;2.60;99.90
20722;DHT22;10522;52.198;9.890;2024-02-26T05:49:43;2.60;99.90
20722;DHT22;10522;52.198;9.890;2024-02-26T05:52:09;2.60;99.90
20722;DHT22;10522;52.198;9.890;2024-02-26T05:54:34;2.60;99.90
20722;DHT22;10522;52.198;9.890;2024-02-26T05:57:00;2.60;99.90
20722;DHT22;10522;52.198;9.890;2024-02-26T05:59:26;2.50;99.90
20722;DHT22;10522;52.198;9.890;2024-02-26T06:01:52;2.60;99.90
20722;DHT22;10522;52.198;9.890;2024-02-26T06:04:17;2.60;99.90
20722;DHT22;10522;52.198;9.890;2024-02-26T06:06:44;2.60;99.90
20722;DHT22;10522;52.198;9.890;2024-02-26T06:09:11;2.60;99.90
20722;DHT22;10522;52.198;9.890;2024-02-26T06:11:37;2.70;99.90
20722;DHT22;10522;52.198;9.890;2024-02-26T06:14:02;2.70;99.90
20722;DHT22;10522;52.198;9.890;2024-02-26T06:16:28;2.70;99.90
20722;DHT22;10522;52.198;9.890;2024-02-26T06:18:54;2.80;99.90
20722;DHT22;10522;52.198;9.890;2024-02-26T06:21:19;2.80;99.90
20722;DHT22;10522;52.198;9.890;2024-02-26T06:23:45;2.80;99.90
20722;DHT22;10522;52.198;9.890;2024-02-26T06:26:11;2.80;99.90
20722;DHT22;10522;52.198;9.890;2024-02-26T06:28:36;2.80;99.90
20722;DHT22;10522;52.198;9.890;2024-02-26T06:31:05;2.80;99.90
20722;DHT22;10522;52.198;9.890;2024-02-26T06:33:31;2.80;99.90
20722;DHT22;10522;52.198;9.890;2024-02-26T06:35:56;2.90;99.90
20722;DHT22;10522;52.198;9.890;2024-02-26T06:38:22;2.90;99.90
20722;DHT22;10522;52.198;9.890;2024-02-26T06:40:47;2.90;99.90
20722;DHT22;10522;52.198;9.890;2024-02-26T06:43:13;2.90;99.90
20722;DHT22;10522;52.198;9.890;2024-02-26T06:45:39;3.00;99.90
20722;DHT22;10522;52.198;9.890;2024-02-26T06:48:05;3.00;99.90
20722;DHT22;10522;52.198;9.890;2024-02-26T06:50:30;2.90;99.90
20722;DHT22;10522;52.198;9.890;2024-02-26T06:52:56;2.90;99.90
20722;DHT22;10522;52.198;9.890;2024-02-26T06:55:21;3.00;99.90
20722;DHT22;10522;52.198;9.890;2024-02-26T06:57:47;2.90;99.90
20722;DHT22;10522;52.198;9.890;2024-02-26T07:00:13;3.00;99.90
20722;DHT22;10522;52.198;9.890;2024-02-26T07:02:42;3.00;99.90
20722;DHT22;10522;52.198;9.890;2024-02-26T07:05:08;3.00;99.90
20722;DHT22;10522;52.198;9.890;2024-02-26T07:07:33;3.00;99.90
20722;DHT22;10522;52.198;9.890;2024-02-26T07:09:59;3.20;99.90
20722;DHT22;10522;52.198;9.890;2024-02-26T07:12:25;3.10;99.90
20722;DHT22;10522;52.198;9.890;2024-02-26T07:14:51;3.10;99.90
20722;DHT22;10522;52.198;9.890;2024-02-26T07:17:17;3.10;99.90
20722;DHT22;10522;52.198;9.890;2024-02-26T07:19:43;3.20;99.90
20722;DHT22;10522;52.198;9.890;2024-02-26T07:22:09;3.20;99.90
20722;DHT22;10522;52.198;9.890;2024-02-26T07:24:34;3.20;99.90
20722;DHT22;10522;52.198;9.890;2024-02-26T07:27:00;3.20;99.90
20722;DHT22;10522;52.198;9.890;2024-02-26T07:29:25;3.30;99.90
20722;DHT22;10522;52.198;9.890;2024-02-26T07:31:51;3.40;99.90
20722;DHT22;10522;52.198;9.890;2024-02-26T07:34:16;3.40;99.90
20722;DHT22;10522;52.198;9.890;2024-02-26T07:36:42;3.60;99.90
20722;DHT22;10522;52.198;9.890;2024-02-26T07:39:08;3.50;99.90
20722;DHT22;10522;52.198;9.890;2024-02-26T07:41:33;3.50;99.90
20722;DHT22;10522;52.198;9.890;2024-02-26T07:43:59;3.50;99.90
20722;DHT22;10522;52.198;9.890;2024-02-26T07:46:25;3.60;99.90
20722;DHT22;10522;52.198;9.890;2024-02-26T07:48:50;3.70;99.90
20722;DHT22;10522;52.198;9.890;2024-02-26T07:51:16;3.70;99.90
20722;DHT22;10522;52.198;9.890;2024-02-26T07:53:42;3.80;99.90
20722;DHT22;10522;52.198;9.890;2024-02-26T07:56:09;3.80;99.90
20722;DHT22;10522;52.198;9.890;2024-02-26T07:58:35;3.90;99.90
20722;DHT22;10522;52.198;9.890;2024-02-26T08:01:00;3.90;99.90
20722;DHT22;10522;52.198;9.890;2024-02-26T08:03:26;4.00;99.90
20722;DHT22;10522;52.198;9.890;2024-02-26T08:05:52;4.00;99.90
20722;DHT22;10522;52.198;9.890;2024-02-26T08:08:17;4.10;99.90
20722;DHT22;10522;52.198;9.890;2024-02-26T08:10:43;4.00;99.90
20722;DHT22;10522;52.198;9.890;2024-02-26T08:13:09;4.10;99.90
20722;DHT22;10522;52.198;9.890;2024-02-26T08:15:35;4.20;99.90
20722;DHT22;10522;52.198;9.890;2024-02-26T08:18:03;4.20;99.90
20722;DHT22;10522;52.198;9.890;2024-02-26T08:20:29;4.20;99.90
20722;DHT22;10522;52.198;9.890;2024-02-26T08:22:55;4.20;99.90
20722;DHT22;10522;52.198;9.890;2024-02-26T08:25:20;4.20;99.90
20722;DHT22;10522;52.198;9.890;2024-02-26T08:27:46;4.20;99.90
20722;DHT22;10522;52.198;9.890;2024-02-26T08:30:16;4.30;99.90
20722;DHT22;10522;52.198;9.890;2024-02-26T08:32:47;4.30;99.90
20722;DHT22;10522;52.198;9.890;2024-02-26T08:35:12;4.30;99.90
20722;DHT22;10522;52.198;9.890;2024-02-26T08:37:38;4.40;99.90
20722;DHT22;10522;52.198;9.890;2024-02-26T08:40:05;4.40;99.90
20722;DHT22;10522;52.198;9.890;2024-02-26T08:42:31;4.40;99.90
20722;DHT22;10522;52.198;9.890;2024-02-26T08:44:56;4.40;99.90
20722;DHT22;10522;52.198;9.890;2024-02-26T08:47:25;4.40;99.90
20722;DHT22;10522;52.198;9.890;2024-02-26T08:49:51;4.40;99.90
20722;DHT22;10522;52.198;9.890;2024-02-26T08:52:16;4.50;99.90
20722;DHT22;10522;52.198;9.890;2024-02-26T08:54:42;4.60;99.90
20722;DHT22;10522;52.198;9.890;2024-02-26T08:57:07;4.70;99.90
20722;DHT22;10522;52.198;9.890;2024-02-26T08:59:33;4.80;99.90
20722;DHT22;10522;52.198;9.890;2024-02-26T09:01:58;4.90;99.90
20722;DHT22;10522;52.198;9.890;2024-02-26T09:04:24;4.90;99.90
20722;DHT22;10522;52.198;9.890;2024-02-26T09:06:50;5.00;99.90
20722;DHT22;10522;52.198;9.890;2024-02-26T09:09:16;5.00;99.90
20722;DHT22;10522;52.198;9.890;2024-02-26T09:11:41;5.10;99.90
20722;DHT22;10522;52.198;9.890;2024-02-26T09:14:07;5.20;99.90
20722;DHT22;10522;52.198;9.890;2024-02-26T09:16:33;5.20;99.90
20722;DHT22;10522;52.198;9.890;2024-02-26T09:18:58;5.20;99.90
20722;DHT22;10522;52.198;9.890;2024-02-26T09:21:24;5.20;99.90
20722;DHT22;10522;52.198;9.890;2024-02-26T09:23:50;5.20;99.90
20722;DHT22;10522;52.198;9.890;2024-02-26T09:26:16;5.30;99.90
20722;DHT22;10522;52.198;9.890;2024-02-26T09:28:42;5.30;99.90
20722;DHT22;10522;52.198;9.890;2024-02-26T09:31:08;5.40;99.90
20722;DHT22;10522;52.198;9.890;2024-02-26T09:33:34;5.40;99.90
20722;DHT22;10522;52.198;9.890;2024-02-26T09:35:59;5.50;99.90
20722;DHT22;10522;52.198;9.890;2024-02-26T09:38:28;5.50;99.90
20722;DHT22;10522;52.198;9.890;2024-02-26T09:40:56;5.60;99.90
20722;DHT22;10522;52.198;9.890;2024-02-26T09:43:23;5.70;99.90
20722;DHT22;10522;52.198;9.890;2024-02-26T09:45:54;5.80;99.90
20722;DHT22;10522;52.198;9.890;2024-02-26T09:48:20;5.90;99.90
20722;DHT22;10522;52.198;9.890;2024-02-26T09:50:46;5.90;99.90
20722;DHT22;10522;52.198;9.890;2024-02-26T09:53:12;5.90;99.90
20722;DHT22;10522;52.198;9.890;2024-02-26T09:55:40;6.00;99.90
20722;DHT22;10522;52.198;9.890;2024-02-26T09:58:06;6.00;99.90
20722;DHT22;10522;52.198;9.890;2024-02-26T10:00:37;6.00;99.90
20722;DHT22;10522;52.198;9.890;2024-02-26T10:03:05;6.10;99.90
20722;DHT22;10522;52.198;9.890;2024-02-26T10:05:32;6.10;99.90
20722;DHT22;10522;52.198;9.890;2024-02-26T10:07:59;6.10;99.90
20722;DHT22;10522;52.198;9.890;2024-02-26T10:10:28;6.10;99.90
20722;DHT22;10522;52.198;9.890;2024-02-26T10:12:54;6.20;99.90
20722;DHT22;10522;52.198;9.890;2024-02-26T10:15:20;6.20;99.90
20722;DHT22;10522;52.198;9.890;2024-02-26T10:17:45;6.30;99.90
20722;DHT22;10522;52.198;9.890;2024-02-26T10:20:18;6.30;99.90
20722;DHT22;10522;52.198;9.890;2024-02-26T10:22:44;6.30;99.90
20722;DHT22;10522;52.198;9.890;2024-02-26T10:25:10;6.30;99.90
20722;DHT22;10522;52.198;9.890;2024-02-26T10:27:36;6.30;99.90
20722;DHT22;10522;52.198;9.890;2024-02-26T10:30:16;6.40;99.90
20722;DHT22;10522;52.198;9.890;2024-02-26T10:32:44;6.30;99.90
20722;DHT22;10522;52.198;9.890;2024-02-26T10:35:09;6.40;99.90
20722;DHT22;10522;52.198;9.890;2024-02-26T10:37:35;6.40;99.90
20722;DHT22;10522;52.198;9.890;2024-02-26T10:40:01;6.40;99.90
20722;DHT22;10522;52.198;9.890;2024-02-26T10:42:28;6.40;99.90
20722;DHT22;10522;52.198;9.890;2024-02-26T10:44:54;6.40;99.90
20722;DHT22;10522;52.198;9.890;2024-02-26T10:47:19;6.30;99.90
20722;DHT22;10522;52.198;9.890;2024-02-26T10:49:48;6.40;99.90
20722;DHT22;10522;52.198;9.890;2024-02-26T10:52:15;6.30;99.90
20722;DHT22;10522;52.198;9.890;2024-02-26T10:54:47;6.40;99.90
20722;DHT22;10522;52.198;9.890;2024-02-26T10:57:15;6.30;99.90
20722;DHT22;10522;52.198;9.890;2024-02-26T10:59:42;6.40;99.90
20722;DHT22;10522;52.198;9.890;2024-02-26T11:02:10;6.50;99.90
20722;DHT22;10522;52.198;9.890;2024-02-26T11:04:37;6.50;99.90
20722;DHT22;10522;52.198;9.890;2024-02-26T11:07:03;6.50;99.90
20722;DHT22;10522;52.198;9.890;2024-02-26T11:09:30;6.60;99.90
20722;DHT22;10522;52.198;9.890;2024-02-26T11:11:57;6.60;99.90
20722;DHT22;10522;52.198;9.890;2024-02-26T11:14:24;6.60;99.90
20722;DHT22;10522;52.198;9.890;2024-02-26T11:16:51;6.70;99.90
20722;DHT22;10522;52.198;9.890;2024-02-26T11:19:18;6.90;99.90
20722;DHT22;10522;52.198;9.890;2024-02-26T11:21:43;6.90;99.90
20722;DHT22;10522;52.198;9.890;2024-02-26T11:24:12;7.10;99.90
20722;DHT22;10522;52.198;9.890;2024-02-26T11:27:07;7.20;99.90
20722;DHT22;10522;52.198;9.890;2024-02-26T11:29:41;7.30;99.90
20722;DHT22;10522;52.198;9.890;2024-02-26T11:32:09;7.30;99.90
20722;DHT22;10522;52.198;9.890;2024-02-26T11:34:35;7.40;99.90
20722;DHT22;10522;52.198;9.890;2024-02-26T11:37:11;7.50;99.90
20722;DHT22;10522;52.198;9.890;2024-02-26T11:39:37;7.50;99.90
20722;DHT22;10522;52.198;9.890;2024-02-26T11:42:08;7.50;99.90
20722;DHT22;10522;52.198;9.890;2024-02-26T11:44:34;7.50;99.90
20722;DHT22;10522;52.198;9.890;2024-02-26T11:47:10;7.40;99.90
20722;DHT22;10522;52.198;9.890;2024-02-26T11:49:36;7.40;99.90
20722;DHT22;10522;52.198;9.890;2024-02-26T11:52:05;7.40;99.90
20722;DHT22;10522;52.198;9.890;2024-02-26T11:54:51;7.40;99.90
20722;DHT22;10522;52.198;9.890;2024-02-26T12:02:52;7.40;99.90
20722;DHT22;10522;52.198;9.890;2024-02-26T12:05:27;7.50;99.90
20722;DHT22;10522;52.198;9.890;2024-02-26T12:08:00;7.50;99.90
20722;DHT22;10522;52.198;9.890;2024-02-26T12:10:33;7.50;99.90
20722;DHT22;10522;52.198;9.890;2024-02-26T12:13:11;7.60;99.90
20722;DHT22;10522;52.198;9.890;2024-02-26T12:15:41;7.60;99.90
20722;DHT22;10522;52.198;9.890;2024-02-26T12:18:09;7.70;99.90
20722;DHT22;10522;52.198;9.890;2024-02-26T12:20:38;7.90;99.90
20722;DHT22;10522;52.198;9.890;2024-02-26T12:23:04;8.00;99.90
20722;DHT22;10522;52.198;9.890;2024-02-26T12:25:30;8.20;99.90
20722;DHT22;10522;52.198;9.890;2024-02-26T12:27:57;8.60;99.90
20722;DHT22;10522;52.198;9.890;2024-02-26T12:30:23;8.70;99.90
20722;DHT22;10522;52.198;9.890;2024-02-26T12:32:50;8.70;99.90
20722;DHT22;10522;52.198;9.890;2024-02-26T12:35:16;8.60;99.90
20722;DHT22;10522;52.198;9.890;2024-02-26T12:37:43;8.50;99.90
20722;DHT22;10522;52.198;9.890;2024-02-26T12:40:09;8.50;99.90
20722;DHT22;10522;52.198;9.890;2024-02-26T12:42:36;8.50;99.90
20722;DHT22;10522;52.198;9.890;2024-02-26T12:45:09;8.50;99.90
20722;DHT22;10522;52.198;9.890;2024-02-26T12:47:39;8.30;99.90
20722;DHT22;10522;52.198;9.890;2024-02-26T12:50:05;8.20;99.90
20722;DHT22;10522;52.198;9.890;2024-02-26T12:52:35;8.30;99.90
20722;DHT22;10522;52.198;9.890;2024-02-26T12:55:02;8.30;99.90
20722;DHT22;10522;52.198;9.890;2024-02-26T12:57:32;8.50;99.90
20722;DHT22;10522;52.198;9.890;2024-02-26T12:59:59;8.40;99.90
20722;DHT22;10522;52.198;9.890;2024-02-26T13:02:25;8.40;99.90
20722;DHT22;10522;52.198;9.890;2024-02-26T13:04:52;8.50;99.90
20722;DHT22;10522;52.198;9.890;2024-02-26T13:07:18;8.40;99.90
20722;DHT22;10522;52.198;9.890;2024-02-26T13:09:44;8.50;99.90
20722;DHT22;10522;52.198;9.890;2024-02-26T13:12:11;8.50;99.90
20722;DHT22;10522;52.198;9.890;2024-02-26T13:14:37;8.50;99.90
20722;DHT22;10522;52.198;9.890;2024-02-26T13:17:04;8.50;99.90
20722;DHT22;10522;52.198;9.890;2024-02-26T13:19:30;8.60;99.90
20722;DHT22;10522;52.198;9.890;2024-02-26T13:21:55;8.60;99.90
20722;DHT22;10522;52.198;9.890;2024-02-26T13:24:21;8.60;99.90
20722;DHT22;10522;52.198;9.890;2024-02-26T13:26:54;8.60;99.90
20722;DHT22;10522;52.198;9.890;2024-02-26T13:29:20;8.60;99.90
20722;DHT22;10522;52.198;9.890;2024-02-26T13:31:46;8.70;99.90
20722;DHT22;10522;52.198;9.890;2024-02-26T13:34:28;8.70;99.90
20722;DHT22;10522;52.198;9.890;2024-02-26T13:36:56;8.60;99.90
20722;DHT22;10522;52.198;9.890;2024-02-26T13:39:26;8.50;99.90
20722;DHT22;10522;52.198;9.890;2024-02-26T13:41:52;8.60;99.90
20722;DHT22;10522;52.198;9.890;2024-02-26T13:44:19;8.60;99.90
20722;DHT22;10522;52.198;9.890;2024-02-26T13:46:45;8.50;99.90
20722;DHT22;10522;52.198;9.890;2024-02-26T13:49:11;8.50;99.90
20722;DHT22;10522;52.198;9.890;2024-02-26T13:51:37;8.50;99.90
20722;DHT22;10522;52.198;9.890;2024-02-26T13:54:03;8.50;99.90
20722;DHT22;10522;52.198;9.890;2024-02-26T13:56:29;8.50;99.90
20722;DHT22;10522;52.198;9.890;2024-02-26T13:58:55;8.40;99.90
20722;DHT22;10522;52.198;9.890;2024-02-26T14:01:21;8.40;99.90
20722;DHT22;10522;52.198;9.890;2024-02-26T14:03:46;8.40;99.90
20722;DHT22;10522;52.198;9.890;2024-02-26T14:06:12;8.40;99.90
20722;DHT22;10522;52.198;9.890;2024-02-26T14:08:38;8.40;99.90
20722;DHT22;10522;52.198;9.890;2024-02-26T14:11:03;8.40;99.90
20722;DHT22;10522;52.198;9.890;2024-02-26T14:13:29;8.50;99.90
20722;DHT22;10522;52.198;9.890;2024-02-26T14:15:54;8.40;99.90
20722;DHT22;10522;52.198;9.890;2024-02-26T14:18:20;8.30;99.90
20722;DHT22;10522;52.198;9.890;2024-02-26T14:20:45;8.30;99.90
20722;DHT22;10522;52.198;9.890;2024-02-26T14:23:11;8.30;99.90
20722;DHT22;10522;52.198;9.890;2024-02-26T14:25:37;8.30;99.90
20722;DHT22;10522;52.198;9.890;2024-02-26T14:28:03;8.20;99.90
20722;DHT22;10522;52.198;9.890;2024-02-26T14:30:29;8.10;99.90
20722;DHT22;10522;52.198;9.890;2024-02-26T14:32:54;8.10;99.90
20722;DHT22;10522;52.198;9.890;2024-02-26T14:35:20;8.10;99.90
20722;DHT22;10522;52.198;9.890;2024-02-26T14:37:46;8.10;99.90
20722;DHT22;10522;52.198;9.890;2024-02-26T14:40:13;8.10;99.90
20722;DHT22;10522;52.198;9.890;2024-02-26T14:42:39;8.00;99.90
20722;DHT22;10522;52.198;9.890;2024-02-26T14:45:05;8.00;99.90
20722;DHT22;10522;52.198;9.890;2024-02-26T14:47:32;8.10;99.90
20722;DHT22;10522;52.198;9.890;2024-02-26T14:49:58;8.10;99.90
20722;DHT22;10522;52.198;9.890;2024-02-26T14:52:23;8.10;99.90
20722;DHT22;10522;52.198;9.890;2024-02-26T14:54:49;8.00;99.90
20722;DHT22;10522;52.198;9.890;2024-02-26T14:57:16;8.00;99.90
20722;DHT22;10522;52.198;9.890;2024-02-26T14:59:42;8.10;99.90
20722;DHT22;10522;52.198;9.890;2024-02-26T15:02:09;8.00;99.90
20722;DHT22;10522;52.198;9.890;2024-02-26T15:04:38;8.10;99.90
20722;DHT22;10522;52.198;9.890;2024-02-26T15:07:04;8.10;99.90
20722;DHT22;10522;52.198;9.890;2024-02-26T15:09:30;8.10;99.90
20722;DHT22;10522;52.198;9.890;2024-02-26T15:11:55;8.10;99.90
20722;DHT22;10522;52.198;9.890;2024-02-26T15:14:23;8.10;99.90
20722;DHT22;10522;52.198;9.890;2024-02-26T15:16:48;8.10;99.90
20722;DHT22;10522;52.198;9.890;2024-02-26T15:19:14;8.20;99.90
20722;DHT22;10522;52.198;9.890;2024-02-26T15:21:44;8.10;99.90
20722;DHT22;10522;52.198;9.890;2024-02-26T15:24:09;8.10;99.90
20722;DHT22;10522;52.198;9.890;2024-02-26T15:26:37;8.00;99.90
20722;DHT22;10522;52.198;9.890;2024-02-26T15:29:02;8.10;99.90
20722;DHT22;10522;52.198;9.890;2024-02-26T15:31:28;8.00;99.90
20722;DHT22;10522;52.198;9.890;2024-02-26T15:33:53;8.00;99.90
20722;DHT22;10522;52.198;9.890;2024-02-26T15:36:19;8.00;99.90
20722;DHT22;10522;52.198;9.890;2024-02-26T15:38:44;7.90;99.90
20722;DHT22;10522;52.198;9.890;2024-02-26T15:41:11;7.90;99.90
20722;DHT22;10522;52.198;9.890;2024-02-26T15:43:38;7.90;99.90
20722;DHT22;10522;52.198;9.890;2024-02-26T15:46:03;7.90;99.90